createdAt,value
2022-12-19T00:01:28.006Z,15.67
2022-12-19T00:04:00.537Z,15.00
2022-12-19T00:06:30.257Z,15.63
2022-12-19T00:09:00.401Z,14.87
2022-12-19T00:11:31.066Z,15.23
2022-12-19T00:14:00.690Z,15.47
2022-12-19T00:16:30.763Z,15.87
2022-12-19T00:19:00.850Z,15.70
2022-12-19T00:21:34.672Z,14.87
2022-12-19T00:24:11.244Z,13.73
2022-12-19T00:26:51.613Z,14.33
2022-12-19T00:29:20.159Z,13.73
2022-12-19T00:31:48.740Z,13.40
2022-12-19T00:34:17.346Z,13.77
2022-12-19T00:36:45.998Z,13.90
2022-12-19T00:39:14.481Z,13.77
2022-12-19T00:41:43.402Z,13.40
2022-12-19T00:44:17.875Z,13.43
2022-12-19T00:46:52.276Z,13.07
2022-12-19T00:49:21.607Z,13.20
2022-12-19T00:51:50.102Z,13.10
2022-12-19T00:54:18.896Z,12.23
2022-12-19T00:56:47.602Z,12.63
2022-12-19T00:59:18.125Z,13.23
2022-12-19T01:01:50.470Z,12.30
2022-12-19T01:04:39.850Z,12.90
2022-12-19T01:07:08.259Z,13.40
2022-12-19T01:09:37.435Z,13.00
2022-12-19T01:12:24.997Z,13.23
2022-12-19T01:15:04.016Z,12.70
2022-12-19T01:17:38.225Z,12.47
2022-12-19T01:20:12.918Z,12.43
2022-12-19T01:22:41.475Z,11.80
2022-12-19T01:25:10.332Z,12.33
2022-12-19T01:27:38.949Z,12.37
2022-12-19T01:30:10.397Z,13.00
2022-12-19T01:32:39.620Z,12.73
2022-12-19T01:35:12.801Z,12.47
2022-12-19T01:37:51.194Z,11.67
2022-12-19T01:40:20.194Z,12.23
2022-12-19T01:42:48.979Z,11.60
2022-12-19T01:45:33.910Z,12.47
2022-12-19T01:48:08.252Z,11.87
2022-12-19T01:50:42.965Z,11.60
2022-12-19T01:53:26.365Z,11.93
2022-12-19T01:55:55.808Z,12.00
2022-12-19T01:58:24.449Z,11.50
2022-12-19T02:00:54.407Z,11.23
2022-12-19T02:03:26.970Z,10.80
2022-12-19T02:05:56.192Z,10.93
2022-12-19T02:08:25.266Z,10.97
2022-12-19T02:10:53.814Z,10.97
2022-12-19T02:13:22.677Z,11.43
2022-12-19T02:15:56.742Z,10.07
2022-12-19T02:18:31.618Z,11.03
2022-12-19T02:21:26.300Z,10.17
2022-12-19T02:24:32.577Z,10.27
2022-12-19T02:27:43.007Z,10.53
2022-12-19T02:30:13.784Z,10.27
2022-12-19T02:32:57.765Z,10.23
2022-12-19T02:35:32.523Z,10.07
2022-12-19T02:38:10.475Z,9.90
2022-12-19T02:40:44.334Z,10.60
2022-12-19T02:43:14.047Z,9.70
2022-12-19T02:45:43.301Z,10.20
2022-12-19T02:48:18.934Z,9.77
2022-12-19T02:50:50.035Z,10.03
2022-12-19T02:53:22.317Z,10.17
2022-12-19T02:56:09.407Z,10.03
2022-12-19T02:58:52.395Z,10.53
2022-12-19T03:01:30.873Z,10.50
2022-12-19T03:04:09.080Z,9.90
2022-12-19T03:06:43.727Z,10.10
2022-12-19T03:09:19.553Z,10.07
2022-12-19T03:11:50.847Z,10.53
2022-12-19T03:14:21.243Z,10.90
2022-12-19T03:16:49.768Z,10.97
2022-12-19T03:19:19.901Z,10.43
2022-12-19T03:21:50.013Z,10.83
2022-12-19T03:24:19.719Z,12.27
2022-12-19T03:26:52.008Z,13.83
2022-12-19T03:29:24.111Z,13.90
2022-12-19T03:31:53.566Z,12.40
2022-12-19T03:34:27.270Z,11.37
2022-12-19T03:36:58.432Z,10.60
2022-12-19T03:39:28.323Z,10.97
2022-12-19T03:42:15.949Z,11.57
2022-12-19T03:44:45.058Z,11.47
2022-12-19T03:47:17.203Z,10.50
2022-12-19T03:49:47.780Z,10.90
2022-12-19T03:52:25.842Z,10.37
2022-12-19T03:55:01.063Z,10.43
2022-12-19T03:57:32.948Z,11.10
2022-12-19T04:00:05.300Z,10.70
2022-12-19T04:02:36.063Z,10.43
2022-12-19T04:05:12.209Z,10.83
2022-12-19T04:07:41.744Z,10.77
2022-12-19T04:10:13.396Z,10.27
2022-12-19T04:12:46.450Z,10.30
2022-12-19T04:15:15.298Z,10.77
2022-12-19T04:17:46.208Z,10.10
2022-12-19T04:20:18.590Z,11.20
2022-12-19T04:22:52.216Z,12.10
2022-12-19T04:25:27.850Z,15.40
2022-12-19T04:28:01.104Z,14.00
2022-12-19T04:30:29.816Z,15.03
2022-12-19T04:33:05.140Z,17.67
2022-12-19T04:35:38.126Z,16.67
2022-12-19T04:38:08.388Z,15.40
2022-12-19T04:40:41.180Z,13.43
2022-12-19T04:43:10.514Z,12.80
2022-12-19T04:45:39.068Z,11.63
2022-12-19T04:48:08.887Z,11.80
2022-12-19T04:50:38.867Z,11.73
2022-12-19T04:53:07.907Z,11.67
2022-12-19T04:55:36.522Z,11.67
2022-12-19T04:58:06.268Z,11.20
2022-12-19T05:00:34.999Z,11.23
2022-12-19T05:03:03.664Z,10.87
2022-12-19T05:05:32.198Z,10.60
2022-12-19T05:08:02.164Z,10.70
2022-12-19T05:10:30.659Z,10.00
2022-12-19T05:12:59.188Z,10.90
2022-12-19T05:15:27.686Z,10.47
2022-12-19T05:17:56.170Z,10.93
2022-12-19T05:20:24.719Z,10.00
2022-12-19T05:22:53.312Z,9.97
2022-12-19T05:25:23.289Z,10.27
2022-12-19T05:27:51.803Z,10.50
2022-12-19T05:30:20.380Z,10.23
2022-12-19T05:32:48.868Z,10.53
2022-12-19T05:35:17.489Z,10.33
2022-12-19T05:37:45.961Z,10.73
2022-12-19T05:40:14.573Z,11.20
2022-12-19T05:42:44.490Z,11.47
2022-12-19T05:45:13.004Z,11.97
2022-12-19T05:47:43.900Z,11.10
2022-12-19T05:50:12.411Z,11.00
2022-12-19T05:52:41.063Z,10.73
2022-12-19T05:55:10.902Z,11.27
2022-12-19T05:57:39.415Z,12.80
2022-12-19T06:00:10.876Z,13.83
2022-12-19T06:02:39.617Z,13.80
2022-12-19T06:05:09.289Z,11.60
2022-12-19T06:07:37.861Z,11.00
2022-12-19T06:10:07.326Z,11.07
2022-12-19T06:12:35.827Z,13.23
2022-12-19T06:15:04.588Z,15.17
2022-12-19T06:17:34.470Z,13.00
2022-12-19T06:20:03.074Z,11.90
2022-12-19T06:22:31.584Z,11.50
2022-12-19T06:25:00.114Z,15.60
2022-12-19T06:27:28.720Z,18.60
2022-12-19T06:29:57.236Z,16.53
2022-12-19T06:32:25.844Z,12.90
2022-12-19T06:35:03.951Z,11.80
2022-12-19T06:37:32.994Z,11.50
2022-12-19T06:40:01.503Z,11.47
2022-12-19T06:42:29.058Z,11.53
2022-12-19T06:44:57.585Z,22.63
2022-12-19T06:47:26.569Z,15.70
2022-12-19T06:49:56.485Z,22.73
2022-12-19T06:52:25.816Z,34.23
2022-12-19T06:54:54.416Z,34.30
2022-12-19T06:57:22.904Z,28.37
2022-12-19T06:59:51.454Z,24.77
2022-12-19T07:02:25.986Z,22.70
2022-12-19T07:04:59.150Z,35.80
2022-12-19T07:07:27.688Z,19.37
2022-12-19T07:09:56.196Z,14.80
2022-12-19T07:12:24.965Z,13.50
2022-12-19T07:14:53.881Z,13.77
2022-12-19T07:17:23.634Z,13.23
2022-12-19T07:19:52.263Z,13.97
2022-12-19T07:22:22.231Z,13.70
2022-12-19T07:24:50.792Z,13.50
2022-12-19T07:27:19.315Z,14.03
2022-12-19T07:29:47.863Z,12.77
2022-12-19T07:32:16.364Z,14.77
2022-12-19T07:34:44.847Z,19.87
2022-12-19T07:37:13.413Z,20.80
2022-12-19T07:39:43.297Z,32.27
2022-12-19T07:42:11.869Z,19.00
2022-12-19T07:44:40.423Z,18.40
2022-12-19T07:47:11.571Z,17.53
2022-12-19T07:49:40.118Z,15.40
2022-12-19T07:52:09.609Z,15.63
2022-12-19T07:54:38.060Z,15.07
2022-12-19T07:57:08.046Z,15.80
2022-12-19T07:59:39.219Z,15.87
2022-12-19T08:02:08.196Z,21.67
2022-12-19T08:04:36.821Z,26.57
2022-12-19T08:07:05.550Z,19.90
2022-12-19T08:09:34.098Z,14.73
2022-12-19T08:12:02.598Z,15.33
2022-12-19T08:14:32.514Z,16.03
2022-12-19T08:19:49.515Z,15.33
2022-12-19T08:22:18.122Z,14.10
2022-12-19T08:24:46.733Z,14.13
2022-12-19T08:27:16.815Z,14.20
2022-12-19T08:29:47.506Z,13.93
2022-12-19T08:32:20.743Z,14.87
2022-12-19T08:34:49.871Z,13.57
2022-12-19T08:37:18.564Z,13.37
2022-12-19T08:39:47.089Z,13.27
2022-12-19T08:42:15.944Z,13.93
2022-12-19T08:44:44.463Z,13.40
2022-12-19T08:47:14.663Z,13.63
2022-12-19T08:49:43.173Z,12.97
2022-12-19T08:52:11.735Z,12.97
2022-12-19T08:54:40.368Z,13.83
2022-12-19T08:57:09.193Z,13.03
2022-12-19T08:59:37.689Z,13.57
2022-12-19T09:02:07.274Z,13.40
2022-12-19T09:06:01.493Z,15.07
2022-12-19T09:07:26.281Z,15.33
2022-12-19T09:09:54.992Z,14.07
2022-12-19T09:12:23.668Z,13.20
2022-12-19T09:14:52.185Z,14.20
2022-12-19T09:17:20.944Z,14.33
2022-12-19T09:19:51.058Z,14.83
2022-12-19T09:22:19.562Z,13.10
2022-12-19T09:24:48.129Z,14.73
2022-12-19T09:27:16.651Z,14.20
2022-12-19T09:29:45.194Z,15.13
2022-12-19T09:32:13.741Z,14.20
2022-12-19T09:34:42.251Z,15.37
2022-12-19T09:37:16.791Z,14.57
2022-12-19T09:39:47.275Z,18.60
2022-12-19T09:42:46.656Z,18.13
2022-12-19T09:45:32.153Z,14.30
2022-12-19T09:48:02.158Z,14.10
2022-12-19T09:50:45.842Z,14.17
2022-12-19T09:53:21.503Z,14.20
2022-12-19T09:55:51.013Z,15.20
2022-12-19T09:58:25.959Z,14.47
2022-12-19T10:01:00.197Z,13.37
2022-12-19T10:03:32.256Z,13.83
2022-12-19T10:07:22.149Z,13.67
2022-12-19T10:10:46.372Z,13.63
2022-12-19T10:12:45.783Z,12.57
2022-12-19T10:15:07.420Z,12.50
2022-12-19T10:17:47.655Z,13.17
2022-12-19T10:20:24.253Z,13.43
2022-12-19T10:23:06.703Z,14.50
2022-12-19T10:25:51.890Z,13.70
2022-12-19T10:28:30.864Z,12.77
2022-12-19T10:31:14.015Z,13.37
2022-12-19T10:33:52.054Z,12.17
2022-12-19T10:36:20.576Z,12.30
2022-12-19T10:38:54.920Z,13.60
2022-12-19T10:41:26.301Z,23.50
2022-12-19T10:44:02.433Z,14.67
2022-12-19T10:46:40.209Z,11.80
2022-12-19T10:49:14.603Z,13.00
2022-12-19T10:51:43.498Z,12.03
2022-12-19T10:54:12.083Z,11.17
2022-12-19T10:56:42.040Z,12.00
2022-12-19T10:59:17.622Z,12.33
2022-12-19T11:01:47.207Z,12.00
2022-12-19T11:04:31.754Z,13.03
2022-12-19T11:07:17.372Z,12.70
2022-12-19T11:09:51.314Z,12.77
2022-12-19T11:15:17.104Z,13.20
2022-12-19T11:19:47.138Z,12.90
2022-12-19T11:24:34.951Z,13.97
2022-12-19T11:29:41.631Z,13.20
2022-12-19T11:30:37.136Z,13.07
2022-12-19T11:30:48.855Z,13.47
2022-12-19T11:32:42.934Z,13.13
2022-12-19T11:35:24.337Z,13.80
2022-12-19T11:37:56.598Z,13.23
2022-12-19T11:40:33.333Z,13.07
2022-12-19T11:43:42.750Z,13.87
2022-12-19T11:46:01.189Z,13.13
2022-12-19T11:48:37.948Z,13.33
2022-12-19T11:51:15.684Z,13.03
2022-12-19T11:53:50.777Z,13.90
2022-12-19T11:56:22.616Z,12.67
2022-12-19T11:58:54.098Z,12.73
2022-12-19T12:01:40.394Z,13.87
2022-12-19T12:04:18.994Z,13.90
2022-12-19T12:06:50.188Z,13.27
2022-12-19T12:11:50.100Z,14.33
2022-12-19T12:20:10.389Z,15.03
2022-12-19T12:24:22.394Z,15.23
2022-12-19T12:31:26.957Z,15.17
2022-12-19T12:31:41.756Z,14.70
2022-12-19T12:31:51.728Z,14.63
2022-12-19T12:31:52.579Z,13.77
2022-12-19T12:31:53.909Z,15.30
2022-12-19T12:35:31.526Z,14.73
2022-12-19T12:39:04.920Z,15.07
2022-12-19T12:41:59.080Z,14.80
2022-12-19T12:44:32.916Z,14.70
2022-12-19T12:47:06.607Z,13.53
2022-12-19T12:49:39.857Z,14.27
2022-12-19T12:52:13.216Z,14.97
2022-12-19T12:54:45.410Z,14.93
2022-12-19T12:57:20.575Z,19.07
2022-12-19T13:00:18.322Z,19.73
2022-12-19T13:02:49.423Z,18.20
2022-12-19T13:05:27.195Z,14.20
2022-12-19T13:07:57.463Z,15.37
2022-12-19T13:10:27.731Z,14.60
2022-12-19T13:13:00.834Z,16.80
2022-12-19T13:15:40.959Z,16.37
2022-12-19T13:18:33.252Z,36.33
2022-12-19T13:21:03.541Z,21.33
2022-12-19T13:23:59.140Z,16.33
2022-12-19T13:26:52.476Z,16.17
2022-12-19T13:29:35.852Z,14.90
2022-12-19T13:32:13.184Z,14.33
2022-12-19T13:34:53.799Z,14.90
2022-12-19T13:39:59.028Z,15.73
2022-12-19T13:40:34.668Z,14.87
2022-12-19T13:43:29.750Z,14.90
2022-12-19T13:46:00.068Z,15.37
2022-12-19T13:48:31.755Z,14.70
2022-12-19T13:51:02.168Z,15.73
2022-12-19T13:53:31.252Z,15.73
2022-12-19T13:56:04.271Z,16.00
2022-12-19T13:58:34.407Z,16.57
2022-12-19T14:01:05.845Z,15.77
2022-12-19T14:03:37.355Z,15.50
2022-12-19T14:06:15.965Z,15.77
2022-12-19T14:09:16.344Z,20.10
2022-12-19T14:12:26.114Z,22.73
2022-12-19T14:15:12.258Z,17.57
2022-12-19T14:17:40.225Z,16.47
2022-12-19T14:22:02.495Z,23.03
2022-12-19T14:23:07.856Z,16.87
2022-12-19T14:28:18.784Z,17.47
2022-12-19T14:28:37.268Z,34.63
2022-12-19T14:31:09.283Z,21.03
2022-12-19T14:33:59.010Z,20.67
2022-12-19T14:36:32.847Z,26.57
2022-12-19T14:39:19.620Z,20.60
2022-12-19T14:42:09.220Z,17.30
2022-12-19T14:52:51.929Z,19.23
2022-12-19T14:53:33.930Z,17.00
2022-12-19T14:54:17.638Z,15.27
2022-12-19T14:54:48.411Z,20.13
2022-12-19T14:59:01.681Z,16.23
2022-12-19T15:01:34.142Z,16.57
2022-12-19T15:04:48.111Z,17.53
2022-12-19T15:07:07.174Z,17.80
2022-12-19T15:11:02.452Z,22.27
2022-12-19T15:14:52.305Z,25.33
2022-12-19T15:15:59.074Z,21.23
2022-12-19T15:18:39.024Z,21.23
2022-12-19T15:21:09.186Z,20.50
2022-12-19T15:23:37.702Z,20.67
2022-12-19T15:26:08.855Z,18.93
2022-12-19T15:28:42.305Z,19.10
2022-12-19T15:31:24.390Z,20.70
2022-12-19T15:36:43.362Z,18.53
2022-12-19T15:39:11.858Z,18.57
2022-12-19T15:41:40.345Z,18.50
2022-12-19T15:44:11.197Z,21.52
2022-12-19T15:46:46.340Z,20.83
2022-12-19T15:49:19.152Z,28.93
2022-12-19T15:51:48.034Z,31.50
2022-12-19T15:57:05.355Z,19.57
2022-12-19T15:59:37.268Z,37.27
2022-12-19T16:02:17.660Z,53.53
2022-12-19T16:04:49.048Z,49.87
2022-12-19T16:07:20.107Z,53.63
2022-12-19T16:09:49.622Z,40.87
2022-12-19T16:12:20.593Z,33.70
2022-12-19T16:14:50.864Z,32.97
2022-12-19T16:17:22.708Z,33.37
2022-12-19T16:19:52.822Z,22.90
2022-12-19T16:22:23.494Z,21.10
2022-12-19T16:24:53.226Z,20.53
2022-12-19T16:27:25.661Z,24.73
2022-12-19T16:29:55.242Z,23.83
2022-12-19T16:32:24.763Z,28.20
2022-12-19T16:34:54.934Z,29.03
2022-12-19T16:37:28.487Z,23.77
2022-12-19T16:39:58.825Z,22.63
2022-12-19T16:42:28.401Z,22.23
2022-12-19T16:44:57.153Z,25.00
2022-12-19T16:47:25.770Z,23.37
2022-12-19T16:49:55.796Z,24.43
2022-12-19T16:52:24.879Z,26.17
2022-12-19T16:54:53.364Z,26.27
2022-12-19T16:57:22.747Z,25.57
2022-12-19T16:59:52.124Z,27.63
2022-12-19T17:02:40.744Z,29.33
2022-12-19T17:05:16.911Z,26.57
2022-12-19T17:07:45.862Z,25.57
2022-12-19T17:10:14.779Z,25.37
2022-12-19T17:12:43.780Z,28.30
2022-12-19T17:15:23.171Z,25.73
2022-12-19T17:17:53.530Z,25.80
2022-12-19T17:20:25.250Z,23.50
2022-12-19T17:22:54.070Z,21.80
2022-12-19T17:25:24.898Z,22.53
2022-12-19T17:27:54.213Z,23.20
2022-12-19T17:30:23.237Z,22.33
2022-12-19T17:32:54.550Z,22.13
2022-12-19T17:35:28.087Z,21.33
2022-12-19T17:37:58.310Z,22.20
2022-12-19T17:40:28.779Z,25.33
2022-12-19T17:42:58.030Z,25.67
2022-12-19T17:45:28.320Z,24.43
2022-12-19T17:48:02.521Z,24.53
2022-12-19T17:50:39.896Z,24.73
2022-12-19T17:53:14.707Z,23.50
2022-12-19T17:55:43.485Z,23.63
2022-12-19T17:58:12.289Z,24.23
2022-12-19T18:00:41.855Z,24.60
2022-12-19T18:03:18.904Z,24.40
2022-12-19T18:05:49.743Z,23.70
2022-12-19T18:08:26.586Z,24.53
2022-12-19T18:10:56.594Z,24.53
2022-12-19T18:13:25.511Z,25.63
2022-12-19T18:15:56.327Z,25.40
2022-12-19T18:18:29.737Z,25.40
2022-12-19T18:21:00.781Z,25.57
2022-12-19T18:23:30.481Z,26.13
2022-12-19T18:26:02.247Z,27.27
2022-12-19T18:28:31.732Z,27.50
2022-12-19T18:31:02.361Z,25.57
2022-12-19T18:33:35.269Z,24.27
2022-12-19T18:36:07.055Z,24.23
2022-12-19T18:38:35.631Z,23.57
2022-12-19T18:41:04.420Z,23.83
2022-12-19T18:43:33.653Z,25.00
2022-12-19T18:46:02.375Z,24.03
2022-12-19T18:48:33.450Z,23.87
2022-12-19T18:51:04.548Z,24.73
2022-12-19T18:53:35.962Z,25.37
2022-12-19T18:56:06.074Z,23.13
2022-12-19T18:58:35.230Z,25.40
2022-12-19T19:01:05.867Z,25.33
2022-12-19T19:03:36.264Z,25.33
2022-12-19T19:06:08.269Z,24.33
2022-12-19T19:08:37.532Z,25.70
2022-12-19T19:11:06.200Z,25.23
2022-12-19T19:13:34.753Z,24.83
2022-12-19T19:16:07.820Z,25.13
2022-12-19T19:18:38.732Z,25.63
2022-12-19T19:21:11.212Z,34.57
2022-12-19T19:23:42.546Z,32.40
2022-12-19T19:26:11.081Z,27.30
2022-12-19T19:28:39.789Z,25.97
2022-12-19T19:31:10.262Z,25.67
2022-12-19T19:33:42.084Z,23.83
2022-12-19T19:36:17.029Z,25.10
2022-12-19T19:38:49.232Z,25.80
2022-12-19T19:41:17.996Z,25.97
2022-12-19T19:43:46.700Z,25.63
2022-12-19T19:46:15.312Z,26.00
2022-12-19T19:48:44.014Z,26.80
2022-12-19T19:51:16.256Z,26.40
2022-12-19T19:53:44.908Z,26.27
2022-12-19T19:56:13.491Z,27.23
2022-12-19T19:58:42.415Z,26.77
2022-12-19T20:01:11.639Z,26.53
2022-12-19T20:03:41.979Z,26.07
2022-12-19T20:06:13.071Z,26.87
2022-12-19T20:08:41.833Z,27.67
2022-12-19T20:11:11.026Z,25.93
2022-12-19T20:13:39.703Z,25.80
2022-12-19T20:16:09.703Z,27.13
2022-12-19T20:18:39.448Z,26.57
2022-12-19T20:21:12.659Z,27.40
2022-12-19T20:23:44.625Z,27.43
2022-12-19T20:26:15.601Z,26.23
2022-12-19T20:28:48.858Z,26.43
2022-12-19T20:31:19.326Z,27.40
2022-12-19T20:33:48.922Z,26.83
2022-12-19T20:36:18.326Z,27.77
2022-12-19T20:38:48.970Z,26.67
2022-12-19T20:41:18.026Z,27.10
2022-12-19T20:43:48.156Z,29.13
2022-12-19T20:46:19.634Z,27.63
2022-12-19T20:48:49.123Z,30.43
2022-12-19T20:51:18.665Z,31.63
2022-12-19T20:53:49.050Z,47.73
2022-12-19T20:56:19.037Z,36.93
2022-12-19T20:58:48.060Z,30.13
2022-12-19T21:01:18.829Z,26.70
2022-12-19T21:03:48.624Z,25.33
2022-12-19T21:06:19.123Z,26.23
2022-12-19T21:08:49.155Z,25.70
2022-12-19T21:11:17.695Z,25.60
2022-12-19T21:13:46.305Z,25.37
2022-12-19T21:16:17.319Z,24.73
2022-12-19T21:18:47.258Z,24.10
2022-12-19T21:21:17.894Z,22.87
2022-12-19T21:23:48.281Z,22.57
2022-12-19T21:26:16.845Z,22.17
2022-12-19T21:28:45.541Z,24.57
2022-12-19T21:31:17.316Z,23.37
2022-12-19T21:33:46.698Z,22.57
2022-12-19T21:36:19.054Z,22.60
2022-12-19T21:38:49.685Z,22.90
2022-12-19T21:41:19.653Z,22.87
2022-12-19T21:43:49.027Z,24.73
2022-12-19T21:46:18.447Z,23.23
2022-12-19T21:48:48.385Z,22.60
2022-12-19T21:51:18.576Z,22.47
2022-12-19T21:53:48.722Z,23.17
2022-12-19T21:56:24.704Z,21.90
2022-12-19T21:58:54.436Z,22.80
2022-12-19T22:01:23.155Z,23.77
2022-12-19T22:03:52.337Z,23.33
2022-12-19T22:06:27.713Z,12.40
2022-12-19T22:08:58.771Z,17.83
2022-12-19T22:11:28.344Z,19.37
2022-12-19T22:13:56.985Z,21.80
2022-12-19T22:16:25.602Z,20.93
2022-12-19T22:18:55.028Z,20.80
2022-12-19T22:21:23.653Z,20.43
2022-12-19T22:23:58.729Z,21.17
2022-12-19T22:26:28.015Z,20.70
2022-12-19T22:28:57.925Z,21.73
2022-12-19T22:31:28.549Z,20.30
2022-12-19T22:33:58.709Z,21.10
2022-12-19T22:36:29.165Z,19.73
2022-12-19T22:39:00.848Z,19.30
2022-12-19T22:41:29.688Z,19.53
2022-12-19T22:43:58.365Z,19.67
2022-12-19T22:46:28.610Z,20.00
2022-12-19T22:48:58.514Z,19.40
2022-12-19T22:51:27.893Z,20.27
2022-12-19T22:53:58.554Z,20.30
2022-12-19T22:56:28.726Z,20.57
2022-12-19T22:59:00.933Z,21.40
2022-12-19T23:01:32.133Z,21.57
2022-12-19T23:04:03.283Z,21.63
2022-12-19T23:06:33.588Z,22.63
2022-12-19T23:09:04.015Z,21.63
2022-12-19T23:11:35.143Z,22.30
2022-12-19T23:14:04.730Z,21.87
2022-12-19T23:16:33.416Z,21.77
2022-12-19T23:19:02.030Z,22.77
2022-12-19T23:21:30.519Z,22.40
2022-12-19T23:23:59.092Z,23.60
2022-12-19T23:26:30.909Z,23.10
2022-12-19T23:29:00.793Z,21.97
2022-12-19T23:31:30.061Z,22.40
2022-12-19T23:33:59.160Z,22.37
2022-12-19T23:37:08.510Z,21.83
2022-12-19T23:39:16.491Z,22.07
2022-12-19T23:41:46.419Z,21.83
2022-12-19T23:44:15.421Z,21.93
2022-12-19T23:46:43.933Z,22.53
2022-12-19T23:49:12.475Z,23.73
2022-12-19T23:51:41.010Z,22.33
2022-12-19T23:54:09.848Z,20.30
2022-12-19T23:56:38.528Z,20.43
2022-12-19T23:59:08.604Z,20.37
